Time;durP1;ratioP1;P1;durP2;ratioP2;P2;SDS_P1;SDS_P2;PMS_P1;PMS_P2;Temp;Humidity;BMP_temperature;BMP_pressure;BME280_temperature;BME280_humidity;BME280_pressure;Samples;Min_cycle;Max_cycle;Signal;HPM_P1;HPM_P2
2023/07/09 00:01:51;;;;;;;9.73;5.57;;;23.50;95.50;;;;;;5080034;28;20039;-71
2023/07/09 00:04:17;;;;;;;10.43;5.15;;;23.40;95.60;;;;;;5075995;28;20067;-71
2023/07/09 00:06:44;;;;;;;12.05;5.45;;;23.40;95.50;;;;;;5081719;28;20055;-71
2023/07/09 00:09:21;;;;;;;12.55;5.68;;;23.30;95.60;;;;;;5082995;28;20040;-71
2023/07/09 00:11:47;;;;;;;12.20;6.10;;;23.30;95.80;;;;;;5063498;28;20062;-70
2023/07/09 00:14:15;;;;;;;9.32;5.43;;;23.30;95.70;;;;;;5074650;28;20254;-72
2023/07/09 00:16:42;;;;;;;13.15;5.70;;;23.20;96.00;;;;;;5074694;28;20036;-72
2023/07/09 00:19:15;;;;;;;12.40;5.63;;;23.20;96.10;;;;;;5075710;28;20047;-72
2023/07/09 00:21:41;;;;;;;11.75;6.18;;;23.10;96.00;;;;;;5076483;28;20413;-72
2023/07/09 00:24:10;;;;;;;9.80;5.90;;;23.10;96.00;;;;;;5082256;28;20069;-71
2023/07/09 00:26:38;;;;;;;8.90;5.30;;;23.10;96.10;;;;;;5058681;28;20076;-72
2023/07/09 00:29:04;;;;;;;13.23;6.60;;;23.00;96.20;;;;;;5070491;28;20079;-72
2023/07/09 00:31:30;;;;;;;8.68;5.72;;;23.00;96.30;;;;;;5055196;28;20101;-71
2023/07/09 00:33:56;;;;;;;11.82;5.55;;;23.00;96.30;;;;;;5067410;28;20484;-71
2023/07/09 00:36:31;;;;;;;9.20;5.68;;;22.90;96.40;;;;;;5068670;28;20056;-72
2023/07/09 00:39:04;;;;;;;9.38;5.78;;;22.90;96.50;;;;;;5069338;28;20048;-71
2023/07/09 00:41:33;;;;;;;10.50;6.25;;;22.80;96.50;;;;;;5073363;28;20059;-72
2023/07/09 00:44:19;;;;;;;10.60;6.60;;;22.80;96.90;;;;;;5083899;28;20042;-72
2023/07/09 00:46:48;;;;;;;15.82;6.13;;;22.70;96.80;;;;;;5076547;28;20056;-71
2023/07/09 00:49:19;;;;;;;13.48;6.55;;;22.70;96.70;;;;;;5078832;28;20041;-71
2023/07/09 00:51:46;;;;;;;11.25;6.88;;;22.70;96.80;;;;;;5079588;28;20098;-72
2023/07/09 00:54:30;;;;;;;12.32;6.88;;;22.70;97.00;;;;;;5077043;28;20131;-71
2023/07/09 00:57:00;;;;;;;10.82;6.30;;;22.60;97.10;;;;;;5061981;28;20611;-71
2023/07/09 00:59:30;;;;;;;13.55;6.93;;;22.60;97.20;;;;;;5061232;28;20492;-72
2023/07/09 01:01:57;;;;;;;10.95;6.72;;;22.60;97.40;;;;;;5073401;28;20741;-71
2023/07/09 01:04:24;;;;;;;10.02;6.20;;;22.50;97.50;;;;;;5079781;28;20083;-71
2023/07/09 01:06:52;;;;;;;11.25;6.60;;;22.50;97.50;;;;;;5078754;28;20047;-72
2023/07/09 01:09:19;;;;;;;13.00;7.20;;;22.50;97.70;;;;;;5080209;28;20043;-71
2023/07/09 01:11:44;;;;;;;11.07;6.78;;;22.40;97.70;;;;;;5064145;28;20064;-72
2023/07/09 01:14:16;;;;;;;12.60;6.28;;;22.40;97.90;;;;;;5078700;28;20133;-71
2023/07/09 01:17:01;;;;;;;11.20;6.40;;;22.30;97.80;;;;;;5070945;28;20126;-71
2023/07/09 01:19:30;;;;;;;10.68;6.10;;;22.30;98.00;;;;;;5075880;28;20040;-71
2023/07/09 01:22:00;;;;;;;9.10;5.88;;;22.30;98.00;;;;;;5054684;28;20087;-71
2023/07/09 01:24:49;;;;;;;11.45;6.47;;;22.20;98.00;;;;;;5069478;28;20412;-71
2023/07/09 01:27:17;;;;;;;10.05;5.70;;;22.20;98.10;;;;;;5067243;28;20048;-72
2023/07/09 01:29:48;;;;;;;9.80;6.68;;;22.20;98.10;;;;;;5066564;28;20411;-71
2023/07/09 01:32:18;;;;;;;10.05;6.53;;;22.20;98.10;;;;;;5072127;28;20052;-72
2023/07/09 01:34:47;;;;;;;12.55;6.43;;;22.10;98.20;;;;;;5077732;28;20094;-72
2023/07/09 01:37:17;;;;;;;10.55;6.32;;;22.10;98.40;;;;;;5075184;28;20048;-72
2023/07/09 01:39:44;;;;;;;12.50;6.40;;;22.10;98.30;;;;;;5081245;28;20055;-72
2023/07/09 01:42:10;;;;;;;11.88;6.97;;;22.10;98.30;;;;;;5083375;28;20436;-71
2023/07/09 01:44:38;;;;;;;12.27;6.82;;;22.00;98.40;;;;;;5082666;28;20042;-71
2023/07/09 01:47:05;;;;;;;11.68;6.63;;;22.00;98.50;;;;;;5064667;28;20151;-72
2023/07/09 01:49:32;;;;;;;16.40;6.57;;;22.00;98.50;;;;;;5085428;28;20036;-71
2023/07/09 01:52:02;;;;;;;13.10;6.80;;;22.00;98.60;;;;;;5066804;28;20107;-72
2023/07/09 01:54:33;;;;;;;10.75;6.20;;;21.90;98.70;;;;;;5076237;28;20044;-72
2023/07/09 01:57:22;;;;;;;12.90;6.95;;;21.90;98.80;;;;;;5066580;28;20036;-71
2023/07/09 01:59:49;;;;;;;11.27;6.68;;;21.90;98.80;;;;;;5072339;28;20048;-71
2023/07/09 02:02:15;;;;;;;11.38;6.35;;;21.90;98.80;;;;;;5077697;28;20050;-71
2023/07/09 02:04:42;;;;;;;14.65;7.35;;;21.80;99.00;;;;;;5062297;28;20123;-72
2023/07/09 02:07:08;;;;;;;12.00;6.97;;;21.80;99.10;;;;;;5060386;28;20044;-72
2023/07/09 02:09:34;;;;;;;14.60;6.97;;;21.70;99.50;;;;;;5076602;28;20046;-72
2023/07/09 02:12:02;;;;;;;11.48;6.85;;;21.70;99.40;;;;;;5082724;28;20504;-71
2023/07/09 02:14:28;;;;;;;10.27;6.45;;;21.70;99.50;;;;;;5078746;28;20105;-72
2023/07/09 02:16:53;;;;;;;14.68;7.07;;;21.60;99.60;;;;;;5081554;28;20044;-71
2023/07/09 02:19:19;;;;;;;11.73;6.43;;;21.60;99.60;;;;;;5084022;28;20047;-71
2023/07/09 02:21:45;;;;;;;11.77;6.40;;;21.60;99.90;;;;;;5085015;28;20043;-71
2023/07/09 02:24:11;;;;;;;10.43;6.45;;;21.50;99.90;;;;;;5084370;28;20115;-71
2023/07/09 02:26:36;;;;;;;11.50;7.82;;;21.50;99.90;;;;;;5081268;28;20044;-72
2023/07/09 02:29:02;;;;;;;11.20;6.78;;;21.50;99.90;;;;;;5076090;28;20748;-71
2023/07/09 02:31:29;;;;;;;11.98;7.03;;;21.50;99.90;;;;;;5081823;28;21596;-72
2023/07/09 02:33:56;;;;;;;11.23;6.50;;;21.40;99.90;;;;;;5081420;28;20500;-72
2023/07/09 02:36:23;;;;;;;10.20;6.93;;;21.40;99.90;;;;;;5083403;28;20051;-72
2023/07/09 02:38:49;;;;;;;12.18;6.78;;;21.30;99.90;;;;;;5079618;28;20048;-72
2023/07/09 02:41:15;;;;;;;12.68;7.07;;;21.30;99.90;;;;;;5073967;28;20101;-72
2023/07/09 02:43:41;;;;;;;9.50;6.28;;;21.30;99.90;;;;;;5081208;28;20067;-72
2023/07/09 02:46:07;;;;;;;11.35;6.72;;;21.30;99.90;;;;;;5074995;28;20040;-71
2023/07/09 02:48:32;;;;;;;14.13;7.20;;;21.20;99.90;;;;;;5082404;28;20170;-71
2023/07/09 02:50:58;;;;;;;11.02;6.25;;;21.20;99.90;;;;;;5082682;28;20075;-72
2023/07/09 02:53:24;;;;;;;11.50;7.38;;;21.20;99.90;;;;;;5075460;28;20504;-72
2023/07/09 02:55:50;;;;;;;14.32;6.97;;;21.20;99.90;;;;;;5078158;28;21002;-72
2023/07/09 02:58:16;;;;;;;10.10;6.97;;;21.10;99.90;;;;;;5079130;28;20044;-72
2023/07/09 03:00:42;;;;;;;15.82;6.95;;;21.10;99.90;;;;;;5074466;28;20589;-72
2023/07/09 03:03:07;;;;;;;12.63;6.72;;;21.10;99.90;;;;;;5083157;28;20035;-72
2023/07/09 03:05:33;;;;;;;10.95;7.30;;;21.00;99.90;;;;;;5083421;28;20151;-72
2023/07/09 03:07:59;;;;;;;12.23;7.55;;;21.00;99.90;;;;;;5059322;28;20045;-71
2023/07/09 03:10:25;;;;;;;10.75;7.53;;;21.00;99.90;;;;;;5078563;28;20397;-72
2023/07/09 03:12:50;;;;;;;14.48;7.28;;;20.90;99.90;;;;;;5082593;28;20048;-72
2023/07/09 03:15:16;;;;;;;11.15;6.90;;;20.90;99.90;;;;;;5078102;28;20533;-72
2023/07/09 03:17:42;;;;;;;13.13;7.80;;;20.80;99.90;;;;;;5078563;28;20726;-70
2023/07/09 03:20:08;;;;;;;9.93;6.50;;;20.80;99.90;;;;;;5075993;28;20098;-70
2023/07/09 03:22:34;;;;;;;11.00;6.90;;;20.80;99.90;;;;;;5081483;28;20505;-70
2023/07/09 03:25:00;;;;;;;11.68;7.72;;;20.70;99.90;;;;;;5059066;28;20044;-69
2023/07/09 03:27:25;;;;;;;13.00;6.90;;;20.70;99.90;;;;;;5076738;28;20502;-70
2023/07/09 03:29:51;;;;;;;12.27;7.05;;;20.70;99.90;;;;;;5076820;28;20036;-70
2023/07/09 03:32:17;;;;;;;11.73;6.72;;;20.70;99.90;;;;;;5079793;28;20044;-70
2023/07/09 03:34:42;;;;;;;13.65;7.55;;;20.70;99.90;;;;;;5079344;28;20048;-71
2023/07/09 03:37:08;;;;;;;11.05;6.93;;;20.60;99.90;;;;;;5078666;28;20048;-70
2023/07/09 03:39:34;;;;;;;19.08;8.45;;;20.60;99.90;;;;;;5078654;28;20113;-70
2023/07/09 03:41:59;;;;;;;14.50;7.38;;;20.60;99.90;;;;;;5082265;28;20585;-70
2023/07/09 03:44:25;;;;;;;11.93;6.70;;;20.60;99.90;;;;;;5080096;28;20366;-69
2023/07/09 03:46:51;;;;;;;11.38;6.25;;;20.70;99.90;;;;;;5082296;28;20064;-69
2023/07/09 03:49:17;;;;;;;13.43;7.55;;;20.50;99.90;;;;;;5072498;28;20150;-72
2023/07/09 03:51:42;;;;;;;11.57;7.22;;;20.50;99.90;;;;;;5076984;28;20520;-72
2023/07/09 03:54:08;;;;;;;10.50;7.10;;;20.50;99.90;;;;;;5077755;28;20055;-70
2023/07/09 03:56:34;;;;;;;11.60;7.50;;;20.50;99.90;;;;;;5079657;28;20408;-70
2023/07/09 03:59:00;;;;;;;13.98;6.80;;;20.50;99.90;;;;;;5074222;28;20451;-70
2023/07/09 04:01:25;;;;;;;13.38;7.25;;;20.50;99.90;;;;;;5061485;28;20136;-69
2023/07/09 04:03:51;;;;;;;11.73;7.32;;;20.50;99.90;;;;;;5081682;28;20044;-70
2023/07/09 04:06:17;;;;;;;11.93;6.80;;;20.50;99.90;;;;;;5075725;28;20064;-70
2023/07/09 04:08:43;;;;;;;11.13;7.00;;;20.40;99.90;;;;;;5076902;28;20059;-70
2023/07/09 04:11:09;;;;;;;13.40;7.53;;;20.40;99.90;;;;;;5075650;28;20040;-68
2023/07/09 04:13:35;;;;;;;14.43;6.95;;;20.40;99.90;;;;;;5080815;28;20040;-70
2023/07/09 04:16:01;;;;;;;13.07;7.25;;;20.40;99.90;;;;;;5080727;28;20036;-70
2023/07/09 04:18:26;;;;;;;11.93;7.20;;;20.40;99.90;;;;;;5072600;28;20048;-69
2023/07/09 04:20:52;;;;;;;13.18;7.50;;;20.30;99.90;;;;;;5078463;28;20801;-69
2023/07/09 04:23:19;;;;;;;11.38;6.97;;;20.30;99.90;;;;;;5082385;28;20306;-70
2023/07/09 04:25:45;;;;;;;11.43;6.78;;;20.30;99.90;;;;;;5069665;28;20063;-69
2023/07/09 04:28:11;;;;;;;11.63;6.88;;;20.30;99.90;;;;;;5066972;28;20569;-69
2023/07/09 04:30:37;;;;;;;12.15;6.80;;;20.40;99.90;;;;;;5084350;28;20055;-69
2023/07/09 04:33:03;;;;;;;9.65;6.45;;;20.40;99.90;;;;;;5063843;28;20040;-70
2023/07/09 04:35:29;;;;;;;11.77;7.10;;;20.40;99.90;;;;;;5068803;28;20044;-70
2023/07/09 04:37:55;;;;;;;10.18;6.50;;;20.40;99.90;;;;;;5060382;28;20040;-70
2023/07/09 04:40:21;;;;;;;11.82;6.43;;;20.40;99.90;;;;;;5073412;28;20055;-70
2023/07/09 04:42:46;;;;;;;10.82;6.80;;;20.50;99.90;;;;;;5077672;28;20126;-70
2023/07/09 04:45:13;;;;;;;9.93;6.20;;;20.60;99.90;;;;;;5061592;28;20131;-70
2023/07/09 04:47:39;;;;;;;12.48;6.78;;;20.60;99.90;;;;;;5079483;28;20566;-71
2023/07/09 04:50:08;;;;;;;10.95;6.80;;;20.80;99.90;;;;;;5080558;28;20044;-72
2023/07/09 04:52:34;;;;;;;10.15;6.32;;;20.90;99.90;;;;;;5048816;28;20101;-71
2023/07/09 04:55:01;;;;;;;10.15;6.60;;;21.10;99.90;;;;;;5066242;28;20517;-71
2023/07/09 04:57:27;;;;;;;9.45;6.13;;;21.20;99.90;;;;;;5073800;28;20128;-72
2023/07/09 04:59:53;;;;;;;14.43;6.32;;;21.30;99.90;;;;;;5072803;28;20039;-71
2023/07/09 05:02:19;;;;;;;10.18;7.13;;;21.40;99.90;;;;;;5065994;28;20044;-70
2023/07/09 05:04:45;;;;;;;12.45;6.40;;;21.40;99.90;;;;;;5051213;28;20044;-73
2023/07/09 05:07:11;;;;;;;8.90;6.40;;;21.40;99.90;;;;;;5072917;28;20044;-72
2023/07/09 05:09:36;;;;;;;10.68;6.65;;;21.50;99.90;;;;;;5076658;28;20032;-73
2023/07/09 05:12:02;;;;;;;10.23;6.40;;;21.60;99.90;;;;;;5069415;28;20710;-71
2023/07/09 05:14:28;;;;;;;11.27;6.65;;;21.60;99.90;;;;;;5081274;28;20047;-71
2023/07/09 05:16:54;;;;;;;10.15;5.85;;;21.80;99.90;;;;;;5074509;28;20429;-73
2023/07/09 05:19:20;;;;;;;12.40;6.38;;;21.80;99.90;;;;;;5075846;28;20055;-72
2023/07/09 05:21:45;;;;;;;11.27;6.45;;;22.00;99.90;;;;;;5074837;28;20051;-71
2023/07/09 05:24:11;;;;;;;11.77;5.70;;;22.20;99.90;;;;;;5075600;28;20090;-73
2023/07/09 05:26:37;;;;;;;10.35;6.45;;;22.30;99.90;;;;;;5073834;28;20040;-72
2023/07/09 05:29:04;;;;;;;10.13;6.78;;;22.30;99.90;;;;;;5074485;28;20060;-71
2023/07/09 05:31:31;;;;;;;15.20;6.63;;;22.30;99.90;;;;;;5073437;28;20048;-73
2023/07/09 05:33:58;;;;;;;9.20;6.15;;;22.30;99.90;;;;;;5054024;28;20078;-72
2023/07/09 05:36:25;;;;;;;10.43;6.47;;;22.30;99.90;;;;;;5083139;28;20051;-72
2023/07/09 05:38:51;;;;;;;9.88;6.20;;;22.30;99.90;;;;;;5083648;28;20046;-71
2023/07/09 05:41:17;;;;;;;12.15;6.38;;;22.30;99.90;;;;;;5084416;28;20080;-71
2023/07/09 05:43:44;;;;;;;12.15;6.47;;;22.30;99.90;;;;;;5073301;28;20078;-71
2023/07/09 05:46:14;;;;;;;12.55;6.30;;;22.20;99.90;;;;;;5073303;28;20048;-71
2023/07/09 05:48:40;;;;;;;13.45;6.82;;;22.30;99.90;;;;;;5068285;28;20109;-71
2023/07/09 05:51:06;;;;;;;10.82;6.53;;;22.20;99.90;;;;;;5077210;28;20568;-71
2023/07/09 05:53:33;;;;;;;12.95;6.45;;;22.20;99.90;;;;;;5066812;28;20477;-71
2023/07/09 05:55:59;;;;;;;10.95;6.55;;;22.20;99.90;;;;;;5074041;28;20224;-73
2023/07/09 05:58:24;;;;;;;10.07;6.25;;;22.30;99.90;;;;;;5066960;28;20484;-71
2023/07/09 06:00:53;;;;;;;10.10;5.75;;;22.30;99.90;;;;;;5069354;28;20044;-71
2023/07/09 06:03:21;;;;;;;12.07;6.90;;;22.20;99.90;;;;;;5068774;28;20070;-71
2023/07/09 06:05:49;;;;;;;12.30;7.10;;;22.30;99.90;;;;;;5052882;28;20064;-72
2023/07/09 06:08:25;;;;;;;10.68;7.03;;;22.30;99.90;;;;;;5064476;28;20603;-72
2023/07/09 06:10:59;;;;;;;12.65;6.70;;;22.30;99.90;;;;;;5066876;28;20123;-71
2023/07/09 06:13:26;;;;;;;12.02;7.28;;;22.40;99.90;;;;;;5067305;28;20154;-71
2023/07/09 06:15:54;;;;;;;13.20;6.97;;;22.40;99.90;;;;;;5072016;28;20068;-72
2023/07/09 06:18:22;;;;;;;10.82;6.82;;;22.60;99.90;;;;;;5071547;28;20412;-72
2023/07/09 06:20:54;;;;;;;11.20;7.03;;;22.70;99.90;;;;;;5069287;28;20051;-72
2023/07/09 06:23:20;;;;;;;13.63;7.40;;;22.80;99.90;;;;;;5078301;28;20041;-72
2023/07/09 06:25:47;;;;;;;13.73;7.10;;;22.80;99.90;;;;;;5072326;28;20058;-72
2023/07/09 06:28:18;;;;;;;13.65;6.25;;;22.90;99.90;;;;;;5068565;28;20049;-72
2023/07/09 06:30:44;;;;;;;12.93;6.93;;;23.10;99.90;;;;;;5071564;28;20497;-72
2023/07/09 06:33:12;;;;;;;12.57;7.25;;;23.20;99.90;;;;;;5053407;28;20131;-71
2023/07/09 06:35:39;;;;;;;11.40;6.55;;;23.20;99.90;;;;;;5065845;28;20119;-73
2023/07/09 06:38:05;;;;;;;13.68;6.35;;;23.20;99.90;;;;;;5067496;28;20045;-73
2023/07/09 06:40:31;;;;;;;12.05;7.30;;;23.20;99.90;;;;;;5067325;28;20044;-72
2023/07/09 06:42:57;;;;;;;13.75;6.85;;;23.20;99.90;;;;;;5069837;28;20120;-71
2023/07/09 06:45:24;;;;;;;10.15;6.65;;;23.30;99.90;;;;;;5064650;28;20059;-72
2023/07/09 06:47:49;;;;;;;14.13;7.13;;;23.30;99.90;;;;;;5063657;28;20032;-71
2023/07/09 06:50:15;;;;;;;12.25;7.28;;;23.30;99.90;;;;;;5080601;27;20089;-71
2023/07/09 06:52:42;;;;;;;11.90;6.60;;;23.40;99.90;;;;;;5078892;28;20055;-71
2023/07/09 06:55:08;;;;;;;11.77;6.70;;;23.40;99.90;;;;;;5064942;28;20084;-71
2023/07/09 06:57:34;;;;;;;10.93;6.85;;;23.40;99.90;;;;;;5068594;28;20049;-72
2023/07/09 07:00:00;;;;;;;13.02;7.32;;;23.50;99.90;;;;;;5065738;28;20044;-71
2023/07/09 07:02:25;;;;;;;11.80;7.22;;;23.40;99.90;;;;;;5064152;28;20048;-73
2023/07/09 07:04:51;;;;;;;13.85;6.70;;;23.50;99.90;;;;;;5045751;28;20142;-72
2023/07/09 07:07:17;;;;;;;11.25;6.85;;;23.50;99.90;;;;;;5067760;28;20647;-71
2023/07/09 07:09:43;;;;;;;14.43;6.88;;;23.60;99.90;;;;;;5065154;28;20127;-70
2023/07/09 07:12:09;;;;;;;13.15;7.15;;;23.70;99.90;;;;;;5065614;28;20075;-71
2023/07/09 07:14:35;;;;;;;13.63;7.53;;;23.80;99.90;;;;;;5063690;28;20054;-71
2023/07/09 07:17:01;;;;;;;10.73;7.18;;;23.80;99.90;;;;;;5067701;28;20098;-71
2023/07/09 07:19:27;;;;;;;11.20;6.80;;;24.00;99.90;;;;;;5067136;28;20047;-70
2023/07/09 07:21:53;;;;;;;10.95;6.45;;;24.00;99.90;;;;;;5067077;28;20040;-71
2023/07/09 07:24:18;;;;;;;13.82;8.05;;;24.20;99.90;;;;;;5066842;28;20135;-70
2023/07/09 07:26:44;;;;;;;14.65;6.35;;;24.30;99.90;;;;;;5064600;28;20846;-71
2023/07/09 07:29:10;;;;;;;13.25;6.80;;;24.30;99.90;;;;;;5046380;28;20505;-70
2023/07/09 07:31:35;;;;;;;13.38;7.38;;;24.40;99.90;;;;;;5064945;28;20044;-71
2023/07/09 07:34:01;;;;;;;12.10;7.68;;;24.50;99.90;;;;;;5064551;28;20043;-71
2023/07/09 07:36:27;;;;;;;11.73;6.90;;;24.50;99.90;;;;;;5046604;28;20898;-71
2023/07/09 07:38:52;;;;;;;10.85;7.28;;;24.60;99.90;;;;;;5064759;28;20047;-70
2023/07/09 07:41:18;;;;;;;13.95;7.45;;;24.60;99.90;;;;;;5047840;28;20040;-70
2023/07/09 07:43:44;;;;;;;12.05;6.75;;;24.60;99.90;;;;;;5066682;28;20080;-70
2023/07/09 07:46:10;;;;;;;12.13;7.50;;;24.80;99.90;;;;;;5072451;28;20740;-70
2023/07/09 07:48:35;;;;;;;11.73;7.00;;;24.90;99.90;;;;;;5049598;28;20083;-70
2023/07/09 07:51:03;;;;;;;11.32;6.97;;;25.00;99.90;;;;;;5048059;28;20542;-70
2023/07/09 07:53:30;;;;;;;13.57;7.63;;;25.10;99.90;;;;;;5061986;28;20069;-70
2023/07/09 07:55:57;;;;;;;11.27;7.47;;;25.20;99.90;;;;;;5067614;28;20052;-71
2023/07/09 07:58:23;;;;;;;13.32;8.40;;;25.30;99.90;;;;;;5068298;28;20587;-71
2023/07/09 08:00:49;;;;;;;13.05;7.57;;;25.50;99.90;;;;;;5070394;28;20048;-71
2023/07/09 08:03:15;;;;;;;16.55;7.32;;;25.60;99.90;;;;;;5068543;28;20704;-71
2023/07/09 08:05:40;;;;;;;13.88;8.07;;;25.70;99.90;;;;;;5055236;28;20374;-71
2023/07/09 08:08:06;;;;;;;15.32;8.05;;;25.80;99.90;;;;;;5069908;28;20451;-73
2023/07/09 08:10:32;;;;;;;15.02;8.80;;;25.90;99.90;;;;;;5068708;28;20044;-71
2023/07/09 08:12:57;;;;;;;14.60;8.98;;;26.00;99.90;;;;;;5054731;28;20040;-71
2023/07/09 08:15:24;;;;;;;14.63;9.27;;;26.10;99.90;;;;;;5073800;28;20101;-71
2023/07/09 08:17:50;;;;;;;12.63;7.38;;;26.20;99.90;;;;;;5074974;28;20447;-71
2023/07/09 08:20:16;;;;;;;14.88;7.85;;;26.20;99.90;;;;;;5074995;28;20078;-71
2023/07/09 08:22:42;;;;;;;16.15;8.68;;;26.30;99.90;;;;;;5073625;28;20859;-71
2023/07/09 08:25:08;;;;;;;15.73;7.68;;;26.40;99.90;;;;;;5068192;28;20044;-72
2023/07/09 08:27:34;;;;;;;12.32;8.18;;;26.50;99.90;;;;;;5068837;28;20044;-71
2023/07/09 08:30:00;;;;;;;12.45;8.07;;;26.50;99.90;;;;;;5068846;28;20040;-70
2023/07/09 08:32:25;;;;;;;16.60;9.32;;;26.60;99.90;;;;;;5060469;28;20036;-71
2023/07/09 08:34:51;;;;;;;15.05;8.82;;;26.70;99.90;;;;;;5055500;28;20041;-70
2023/07/09 08:37:17;;;;;;;15.27;8.60;;;26.70;99.90;;;;;;5069122;28;20094;-71
2023/07/09 08:39:42;;;;;;;15.55;8.40;;;26.80;99.90;;;;;;5070845;28;20140;-73
2023/07/09 08:42:13;;;;;;;13.25;9.20;;;26.90;99.90;;;;;;5072844;28;20032;-73
2023/07/09 08:44:57;;;;;;;14.30;8.98;;;27.00;99.90;;;;;;5058501;28;20722;-73
2023/07/09 08:47:41;;;;;;;12.82;8.20;;;27.20;99.90;;;;;;5067850;28;20166;-72
2023/07/09 08:50:17;;;;;;;14.10;8.88;;;27.30;99.90;;;;;;5074567;28;20047;-72
2023/07/09 08:52:46;;;;;;;15.70;9.55;;;27.40;99.90;;;;;;5084011;28;20408;-72
2023/07/09 08:55:15;;;;;;;15.85;8.95;;;27.40;99.90;;;;;;5087738;28;20071;-72
2023/07/09 08:57:47;;;;;;;15.00;8.25;;;27.50;99.90;;;;;;5075075;28;20044;-72
2023/07/09 09:00:33;;;;;;;16.13;8.93;;;27.60;99.90;;;;;;5080126;28;20048;-72
2023/07/09 09:03:13;;;;;;;15.20;9.70;;;27.70;99.90;;;;;;5082514;28;20581;-74
2023/07/09 09:05:43;;;;;;;14.68;9.63;;;27.70;99.90;;;;;;5080986;28;20444;-74
2023/07/09 09:08:38;;;;;;;13.38;8.80;;;27.80;99.90;;;;;;5082128;28;20503;-74
2023/07/09 09:11:25;;;;;;;16.17;9.52;;;27.90;99.90;;;;;;5083831;28;20071;-74
2023/07/09 09:13:55;;;;;;;15.10;9.35;;;27.90;99.90;;;;;;5077047;28;20833;-73
2023/07/09 09:16:27;;;;;;;15.98;9.10;;;27.90;99.90;;;;;;5075445;28;20059;-73
2023/07/09 09:18:58;;;;;;;17.10;10.13;;;28.00;99.90;;;;;;5078882;28;20471;-75
2023/07/09 09:21:32;;;;;;;14.98;10.30;;;28.00;99.90;;;;;;5067148;28;20607;-74
2023/07/09 09:24:08;;;;;;;15.32;9.80;;;28.00;99.90;;;;;;5087606;28;20416;-74
2023/07/09 09:26:36;;;;;;;15.52;10.73;;;28.10;99.90;;;;;;5081495;28;20488;-73
2023/07/09 09:29:12;;;;;;;;;;;28.20;99.90;;;;;;5066015;28;20040;-72
2023/07/09 09:31:38;;;;;;;15.13;9.85;;;28.20;99.90;;;;;;5086245;28;19928;-72
2023/07/09 09:34:05;;;;;;;14.55;8.98;;;28.20;99.90;;;;;;5086463;28;20048;-72
2023/07/09 09:36:31;;;;;;;15.73;10.15;;;28.20;99.90;;;;;;5077837;28;20467;-72
2023/07/09 09:39:02;;;;;;;14.02;9.60;;;28.30;99.90;;;;;;5077400;28;20135;-72
2023/07/09 09:41:36;;;;;;;14.50;9.38;;;28.30;99.90;;;;;;5060575;28;20447;-73
2023/07/09 09:44:02;;;;;;;14.73;8.68;;;28.30;99.90;;;;;;5073895;28;20078;-73
2023/07/09 09:46:28;;;;;;;15.30;9.63;;;28.30;99.90;;;;;;5066150;28;20085;-73
2023/07/09 09:48:55;;;;;;;14.10;9.60;;;28.30;99.90;;;;;;5073327;28;20051;-72
2023/07/09 09:51:23;;;;;;;13.30;9.38;;;28.40;99.90;;;;;;5063506;28;20095;-72
2023/07/09 09:54:01;;;;;;;12.68;8.77;;;28.40;99.90;;;;;;5055749;28;20040;-72
2023/07/09 09:56:26;;;;;;;13.55;9.00;;;28.50;99.90;;;;;;5064773;28;20051;-73
2023/07/09 09:58:54;;;;;;;12.85;9.30;;;28.50;99.90;;;;;;5062214;28;21916;-74
2023/07/09 10:01:30;;;;;;;14.80;9.32;;;28.50;99.90;;;;;;5061103;28;20047;-72
2023/07/09 10:03:58;;;;;;;12.18;9.13;;;28.60;99.90;;;;;;5062239;28;20038;-73
2023/07/09 10:06:40;;;;;;;12.15;9.07;;;28.60;99.90;;;;;;5075636;28;20040;-73
2023/07/09 10:09:37;;;;;;;11.45;8.70;;;28.60;99.90;;;;;;5066776;28;20040;-73
2023/07/09 10:12:20;;;;;;;13.48;10.27;;;28.70;99.90;;;;;;5063881;28;20063;-73
2023/07/09 10:15:08;;;;;;;17.80;10.07;;;28.70;99.90;;;;;;5076006;28;20051;-73
2023/07/09 10:17:44;;;;;;;13.35;9.40;;;28.80;99.90;;;;;;5060161;28;20040;-73
2023/07/09 10:20:23;;;;;;;12.25;9.10;;;28.80;99.90;;;;;;5069327;28;20047;-73
2023/07/09 10:22:53;;;;;;;12.50;9.10;;;28.80;99.90;;;;;;5066034;28;20058;-73
2023/07/09 10:25:34;;;;;;;12.18;8.95;;;28.80;99.90;;;;;;5073422;28;20040;-73
2023/07/09 10:28:09;;;;;;;12.27;8.75;;;28.80;99.90;;;;;;5087001;28;20055;-74
2023/07/09 10:31:00;;;;;;;13.07;10.30;;;28.90;99.90;;;;;;5054542;28;20086;-73
2023/07/09 10:33:47;;;;;;;15.10;9.15;;;28.90;99.90;;;;;;5058205;28;20059;-74
2023/07/09 10:36:40;;;;;;;12.90;9.80;;;28.90;99.90;;;;;;5063986;28;20177;-73
2023/07/09 10:39:16;;;;;;;12.63;10.38;;;28.90;99.90;;;;;;5060643;28;20056;-72
2023/07/09 10:41:44;;;;;;;13.75;8.52;;;28.90;99.90;;;;;;5063179;28;20047;-73
2023/07/09 10:44:25;;;;;;;13.20;9.55;;;29.00;99.90;;;;;;5068742;28;20048;-72
2023/07/09 10:47:00;;;;;;;13.48;9.02;;;29.00;99.90;;;;;;5053975;28;20036;-77
2023/07/09 10:49:35;;;;;;;11.32;8.52;;;29.00;99.90;;;;;;5064993;28;20052;-73
2023/07/09 10:52:11;;;;;;;12.40;7.85;;;29.00;99.90;;;;;;5063401;28;20048;-73
2023/07/09 10:55:12;;;;;;;10.35;6.97;;;29.00;99.90;;;;;;5061012;28;20614;-74
2023/07/09 10:57:59;;;;;;;11.90;7.22;;;29.10;99.90;;;;;;5025812;28;20147;-72
2023/07/09 11:00:36;;;;;;;10.48;6.20;;;29.10;99.90;;;;;;5055342;28;20054;-73
2023/07/09 11:03:25;;;;;;;10.32;5.38;;;29.00;99.90;;;;;;5064778;28;21060;-73
2023/07/09 11:05:51;;;;;;;10.73;5.68;;;29.00;99.10;;;;;;5069968;28;20051;-72
2023/07/09 11:08:25;;;;;;;10.73;5.63;;;28.90;97.70;;;;;;5049702;28;20131;-73
2023/07/09 11:10:57;;;;;;;10.30;6.13;;;28.80;97.20;;;;;;5070503;28;20123;-73
2023/07/09 11:13:43;;;;;;;10.13;6.45;;;28.80;96.90;;;;;;5059455;28;20055;-73
2023/07/09 11:16:14;;;;;;;10.30;5.75;;;28.70;97.30;;;;;;5063898;28;20048;-74
2023/07/09 11:18:40;;;;;;;8.85;5.25;;;28.70;97.40;;;;;;5052589;28;20047;-74
2023/07/09 11:21:16;;;;;;;9.75;5.53;;;28.70;97.90;;;;;;5069864;28;20044;-74
2023/07/09 11:23:53;;;;;;;9.05;5.68;;;28.80;97.00;;;;;;5065390;28;20054;-73
2023/07/09 11:26:28;;;;;;;9.55;6.05;;;28.80;97.30;;;;;;5067528;28;20049;-73
2023/07/09 11:29:06;;;;;;;12.40;5.45;;;28.90;97.40;;;;;;5051092;28;21430;-73
2023/07/09 11:31:39;;;;;;;9.70;5.47;;;28.90;97.90;;;;;;5065117;28;20484;-73
2023/07/09 11:34:09;;;;;;;9.48;6.18;;;28.90;98.30;;;;;;5053899;28;20108;-74
2023/07/09 11:36:55;;;;;;;10.95;5.40;;;29.00;98.40;;;;;;5070068;28;20139;-73
2023/07/09 11:39:29;;;;;;;9.90;5.53;;;29.10;98.70;;;;;;5073438;28;20089;-73
2023/07/09 11:41:55;;;;;;;9.05;5.57;;;29.10;98.30;;;;;;5064981;28;20045;-73
2023/07/09 11:44:30;;;;;;;11.57;6.55;;;29.20;98.80;;;;;;5068707;28;21813;-74
2023/07/09 11:46:59;;;;;;;11.13;6.05;;;29.20;98.60;;;;;;5064697;28;20051;-74
2023/07/09 11:49:32;;;;;;;13.15;5.95;;;29.30;98.70;;;;;;5065171;28;20048;-75
2023/07/09 11:52:03;;;;;;;13.55;6.45;;;29.30;98.40;;;;;;5093036;28;20036;-74
2023/07/09 11:54:37;;;;;;;9.38;5.82;;;29.40;97.90;;;;;;5066615;28;20661;-73
2023/07/09 11:57:10;;;;;;;10.57;5.75;;;29.30;96.60;;;;;;5068821;28;20123;-74
2023/07/09 11:59:42;;;;;;;10.13;5.35;;;29.30;96.40;;;;;;5051641;28;20040;-73
2023/07/09 12:02:20;;;;;;;10.63;6.40;;;29.20;96.60;;;;;;5069826;28;20044;-73
2023/07/09 12:04:52;;;;;;;10.60;5.63;;;29.30;95.60;;;;;;5068389;28;20086;-73
2023/07/09 12:07:23;;;;;;;11.48;5.47;;;29.20;96.10;;;;;;5069883;28;20603;-74
2023/07/09 12:09:50;;;;;;;8.70;5.78;;;29.30;97.00;;;;;;5068333;28;20086;-71
2023/07/09 12:12:18;;;;;;;9.38;6.30;;;29.30;96.80;;;;;;5068645;28;20158;-73
2023/07/09 12:14:43;;;;;;;8.95;5.57;;;29.40;96.50;;;;;;5070674;28;20040;-72
2023/07/09 12:17:09;;;;;;;8.85;5.43;;;29.40;95.90;;;;;;5057253;28;20062;-72
2023/07/09 12:19:35;;;;;;;10.45;6.22;;;29.50;96.40;;;;;;5067093;28;20047;-73
2023/07/09 12:22:01;;;;;;;14.82;6.75;;;29.50;96.70;;;;;;5067800;28;20508;-73
2023/07/09 12:24:31;;;;;;;12.60;6.68;;;29.50;97.10;;;;;;5067417;28;20062;-72
2023/07/09 12:26:58;;;;;;;10.02;6.60;;;29.60;96.80;;;;;;5053402;28;20503;-73
2023/07/09 12:29:29;;;;;;;9.73;6.10;;;29.60;96.90;;;;;;5076633;28;20409;-74
2023/07/09 12:32:02;;;;;;;10.27;5.55;;;29.70;97.20;;;;;;5055635;28;20066;-73
2023/07/09 12:34:31;;;;;;;9.07;5.93;;;29.70;97.20;;;;;;5067489;28;20144;-73
2023/07/09 12:36:59;;;;;;;;;;;29.70;96.90;;;;;;5066934;28;20555;-71
2023/07/09 12:39:27;;;;;;;10.05;5.88;;;29.70;97.00;;;;;;5073910;28;20292;-74
2023/07/09 12:41:56;;;;;;;10.32;6.32;;;29.70;96.90;;;;;;5076566;28;20047;-72
2023/07/09 12:44:24;;;;;;;9.75;5.88;;;29.70;96.80;;;;;;5073946;28;20609;-72
2023/07/09 12:46:52;;;;;;;11.07;5.82;;;29.70;96.40;;;;;;5067775;28;20388;-72
2023/07/09 12:49:28;;;;;;;10.25;5.47;;;29.70;96.50;;;;;;5070691;28;21449;-71